Time;durP1;ratioP1;P1;durP2;ratioP2;P2;SDS_P1;SDS_P2;PMS_P1;PMS_P2;Temp;Humidity;BMP_temperature;BMP_pressure;BME280_temperature;BME280_humidity;BME280_pressure;Samples;Min_cycle;Max_cycle;Signal;HPM_P1;HPM_P2
2022/05/16 00:00:51;;;;;;;1.25;0.75;;;19.60;99.90;;;;;;4995241;28;20037;-78
2022/05/16 00:03:18;;;;;;;2.05;0.50;;;19.60;99.90;;;;;;4996595;28;20033;-76
2022/05/16 00:05:46;;;;;;;0.90;0.43;;;19.70;99.90;;;;;;4996223;28;20038;-77
2022/05/16 00:08:13;;;;;;;1.75;0.50;;;19.80;99.90;;;;;;4995980;28;20077;-78
2022/05/16 00:10:41;;;;;;;0.93;0.75;;;19.80;99.90;;;;;;4996667;28;20476;-78
2022/05/16 00:13:08;;;;;;;0.98;0.50;;;19.90;99.90;;;;;;4994937;28;20391;-78
2022/05/16 00:15:35;;;;;;;2.25;0.43;;;20.00;99.90;;;;;;4994950;28;20023;-79
2022/05/16 00:18:05;;;;;;;1.30;0.60;;;20.00;99.90;;;;;;4996381;28;20019;-79
2022/05/16 00:20:32;;;;;;;1.02;0.70;;;20.10;99.90;;;;;;4996370;28;20153;-79
2022/05/16 00:23:00;;;;;;;2.15;0.68;;;20.20;99.90;;;;;;4994736;28;20037;-79
2022/05/16 00:25:27;;;;;;;1.48;0.80;;;20.30;99.90;;;;;;4995895;28;20535;-78
2022/05/16 00:27:54;;;;;;;0.80;0.45;;;20.30;99.90;;;;;;4996353;28;20365;-79
2022/05/16 00:30:22;;;;;;;1.67;0.50;;;20.30;99.90;;;;;;4996043;28;20042;-78
2022/05/16 00:32:50;;;;;;;0.47;0.30;;;20.30;99.90;;;;;;4994691;28;20430;-79
2022/05/16 00:35:20;;;;;;;2.00;0.60;;;20.40;99.90;;;;;;4994645;28;20081;-79
2022/05/16 00:37:47;;;;;;;1.00;0.57;;;20.40;99.90;;;;;;4994487;28;20022;-78
2022/05/16 00:40:16;;;;;;;0.70;0.40;;;20.60;99.90;;;;;;4994698;28;20026;-78
2022/05/16 00:42:43;;;;;;;1.05;0.60;;;20.70;99.90;;;;;;4995771;28;20395;-77
2022/05/16 00:45:13;;;;;;;1.25;0.30;;;20.70;99.90;;;;;;4995495;28;20027;-77
2022/05/16 00:47:41;;;;;;;1.27;0.40;;;20.70;99.90;;;;;;4994386;28;20478;-78
2022/05/16 00:50:10;;;;;;;0.40;0.32;;;20.70;99.90;;;;;;4995625;28;20061;-78
2022/05/16 00:52:42;;;;;;;0.73;0.40;;;20.80;99.90;;;;;;4995995;28;20034;-79
2022/05/16 00:55:29;;;;;;;1.02;0.52;;;20.80;99.90;;;;;;4994317;28;20084;-78
2022/05/16 00:58:02;;;;;;;0.70;0.60;;;20.90;99.90;;;;;;4996011;28;20027;-78
2022/05/16 01:00:33;;;;;;;0.85;0.47;;;20.90;99.90;;;;;;4994192;28;20026;-78
2022/05/16 01:05:55;;;;;;;1.08;0.50;;;21.10;99.90;;;;;;4995274;28;20105;-78
2022/05/16 01:08:25;;;;;;;0.90;0.63;;;21.10;99.90;;;;;;4994970;28;20123;-78
2022/05/16 01:11:06;;;;;;;0.55;0.30;;;21.20;99.90;;;;;;4995364;28;20444;-78
2022/05/16 01:13:33;;;;;;;1.38;0.57;;;21.10;99.90;;;;;;4995194;28;20081;-78
2022/05/16 01:16:03;;;;;;;0.43;0.43;;;21.30;99.90;;;;;;4995386;28;20030;-79
2022/05/16 01:18:30;;;;;;;1.42;0.30;;;21.30;99.90;;;;;;4993682;28;20027;-79
2022/05/16 01:21:15;;;;;;;0.82;0.50;;;21.40;99.90;;;;;;4993966;28;20033;-79
2022/05/16 01:23:45;;;;;;;0.65;0.30;;;21.50;99.90;;;;;;4995303;28;20030;-78
2022/05/16 01:26:24;;;;;;;1.20;0.52;;;21.50;99.90;;;;;;4993698;28;20027;-79
2022/05/16 01:28:53;;;;;;;0.80;0.40;;;21.60;99.90;;;;;;4993780;28;20022;-79
2022/05/16 01:31:21;;;;;;;0.52;0.40;;;21.70;99.90;;;;;;4995589;28;20033;-78
2022/05/16 01:33:49;;;;;;;0.73;0.30;;;21.60;99.90;;;;;;4995444;28;20019;-79
2022/05/16 01:36:16;;;;;;;0.30;0.30;;;21.60;99.90;;;;;;4994926;28;20026;-80
2022/05/16 01:38:43;;;;;;;0.65;0.40;;;21.60;99.90;;;;;;4995766;28;20038;-80
2022/05/16 01:41:17;;;;;;;1.05;0.30;;;21.60;99.90;;;;;;4993336;28;20027;-77
2022/05/16 01:43:50;;;;;;;0.98;0.55;;;21.70;99.90;;;;;;4994600;28;20026;-80
2022/05/16 01:46:32;;;;;;;0.40;0.40;;;21.90;99.90;;;;;;4993309;28;20517;-79
2022/05/16 01:48:59;;;;;;;0.90;0.47;;;22.00;99.90;;;;;;4993463;28;20027;-79
2022/05/16 01:51:27;;;;;;;1.15;0.70;;;22.00;99.90;;;;;;4992608;28;20045;-79
2022/05/16 01:53:55;;;;;;;0.30;0.30;;;21.90;99.90;;;;;;4994306;28;20483;-79
2022/05/16 01:56:23;;;;;;;0.40;0.40;;;21.90;99.90;;;;;;4993086;28;20045;-78
2022/05/16 01:58:51;;;;;;;0.98;0.30;;;22.00;99.90;;;;;;4993110;28;20192;-78
2022/05/16 02:01:18;;;;;;;1.25;0.60;;;22.00;99.90;;;;;;4994283;28;20030;-78
2022/05/16 02:03:49;;;;;;;0.80;0.40;;;22.00;99.90;;;;;;4994292;28;20081;-79
2022/05/16 02:08:52;;;;;;;0.30;0.30;;;22.20;99.90;;;;;;5393072;23;20042;-76
2022/05/16 02:11:20;;;;;;;0.43;0.20;;;22.30;99.90;;;;;;4992665;28;20113;-76
2022/05/16 02:13:48;;;;;;;1.10;0.30;;;22.30;99.90;;;;;;4993812;28;20363;-76
2022/05/16 02:16:15;;;;;;;1.13;0.25;;;22.30;99.90;;;;;;4992674;28;20490;-76
2022/05/16 02:18:42;;;;;;;0.50;0.30;;;22.30;99.90;;;;;;4993805;28;20054;-76
2022/05/16 02:26:46;;;;;;;2.22;0.30;;;22.40;99.90;;;;;;4993967;28;20421;-75
2022/05/16 02:29:15;;;;;;;0.30;0.30;;;22.40;99.90;;;;;;4992387;28;20190;-76
2022/05/16 02:31:42;;;;;;;0.63;0.30;;;22.40;99.90;;;;;;4993818;28;20109;-75
2022/05/16 02:34:10;;;;;;;0.50;0.30;;;22.40;99.90;;;;;;4992290;28;20026;-76
2022/05/16 02:36:37;;;;;;;0.40;0.32;;;22.50;99.90;;;;;;4993773;28;20053;-76
2022/05/16 02:39:05;;;;;;;0.63;0.45;;;22.50;99.90;;;;;;4993821;28;20027;-76
2022/05/16 02:41:32;;;;;;;1.50;0.30;;;22.50;99.90;;;;;;4993826;28;20096;-76
2022/05/16 02:43:59;;;;;;;1.00;0.30;;;22.50;99.90;;;;;;4993875;28;20027;-76
2022/05/16 02:46:27;;;;;;;0.52;0.40;;;22.50;99.90;;;;;;4993591;28;20549;-76
2022/05/16 02:48:54;;;;;;;0.38;0.20;;;22.50;99.90;;;;;;4993426;28;20026;-76
2022/05/16 02:51:21;;;;;;;0.40;0.40;;;22.60;99.90;;;;;;4992275;28;20037;-77
2022/05/16 02:53:50;;;;;;;0.55;0.40;;;22.70;99.90;;;;;;4992085;28;20037;-74
2022/05/16 02:56:17;;;;;;;0.70;0.40;;;22.80;99.90;;;;;;4993485;28;20037;-75
2022/05/16 02:58:45;;;;;;;0.68;0.40;;;22.90;99.90;;;;;;4993399;28;20112;-75
2022/05/16 03:01:13;;;;;;;0.40;0.30;;;22.80;99.90;;;;;;4993394;28;20028;-75
2022/05/16 03:03:41;;;;;;;1.13;0.43;;;22.80;99.90;;;;;;4993319;28;20030;-76
2022/05/16 03:06:10;;;;;;;1.85;0.47;;;22.90;99.90;;;;;;4997482;28;20385;-75
2022/05/16 03:08:38;;;;;;;0.57;0.40;;;23.00;99.90;;;;;;4997034;28;20043;-75
2022/05/16 03:11:06;;;;;;;0.60;0.50;;;22.80;99.90;;;;;;4995918;28;20073;-76
2022/05/16 03:13:34;;;;;;;1.60;0.40;;;22.90;99.90;;;;;;4995889;28;20368;-75
2022/05/16 03:16:02;;;;;;;0.50;0.40;;;23.10;99.90;;;;;;4997027;28;20054;-75
2022/05/16 03:18:31;;;;;;;0.43;0.40;;;23.10;99.90;;;;;;4996991;28;20033;-75
2022/05/16 03:20:59;;;;;;;0.93;0.40;;;23.20;99.90;;;;;;4996831;28;20109;-74
2022/05/16 03:23:26;;;;;;;1.85;0.70;;;23.20;99.90;;;;;;4996905;28;20486;-74
2022/05/16 03:25:54;;;;;;;1.25;0.50;;;23.40;99.90;;;;;;4996877;28;20081;-76
2022/05/16 03:28:21;;;;;;;2.00;0.50;;;23.50;99.90;;;;;;4995605;28;20475;-73
2022/05/16 03:30:49;;;;;;;2.38;0.43;;;23.30;99.90;;;;;;4995435;28;20018;-74
2022/05/16 03:33:17;;;;;;;1.52;0.47;;;23.30;99.90;;;;;;4996728;28;20018;-74
2022/05/16 03:35:44;;;;;;;0.60;0.38;;;23.20;99.90;;;;;;4996772;28;20031;-74
2022/05/16 03:40:41;;;;;;;0.40;0.40;;;23.00;99.90;;;;;;4995330;28;20117;-74
2022/05/16 03:40:59;;;;;;;0.43;0.40;;;23.10;99.90;;;;;;4996548;28;20022;-75
2022/05/16 03:43:27;;;;;;;0.70;0.43;;;23.10;99.90;;;;;;4995330;28;20022;-75
2022/05/16 03:45:55;;;;;;;0.77;0.40;;;23.10;99.90;;;;;;4996847;28;20026;-74
2022/05/16 03:48:22;;;;;;;0.82;0.30;;;23.10;99.90;;;;;;4995109;28;20022;-75
2022/05/16 03:50:52;;;;;;;1.00;0.52;;;23.20;99.90;;;;;;4995147;28;20165;-75
2022/05/16 03:53:19;;;;;;;1.25;0.30;;;23.30;99.90;;;;;;4996403;28;20015;-75
2022/05/16 03:55:47;;;;;;;0.88;0.50;;;23.30;99.90;;;;;;4995005;28;20124;-75
2022/05/16 03:58:14;;;;;;;0.35;0.30;;;23.40;99.90;;;;;;4995070;28;20550;-75
2022/05/16 04:00:42;;;;;;;1.00;0.55;;;23.60;99.90;;;;;;4996292;28;20058;-75
2022/05/16 04:03:09;;;;;;;1.85;0.40;;;23.40;99.90;;;;;;4994901;28;20022;-75
2022/05/16 04:05:38;;;;;;;2.10;0.50;;;23.50;99.90;;;;;;4994672;28;20117;-75
2022/05/16 04:08:06;;;;;;;0.55;0.40;;;23.40;99.90;;;;;;4995871;28;20090;-75
2022/05/16 04:10:34;;;;;;;0.60;0.50;;;23.30;99.90;;;;;;4994779;28;20022;-75
2022/05/16 04:13:01;;;;;;;1.50;0.57;;;23.40;99.90;;;;;;4994717;28;20025;-74
2022/05/16 04:15:28;;;;;;;0.80;0.52;;;23.30;99.90;;;;;;4995666;28;20026;-75
2022/05/16 04:17:56;;;;;;;1.33;0.70;;;23.40;99.90;;;;;;4994644;28;20486;-75
2022/05/16 04:20:23;;;;;;;2.05;0.82;;;23.40;99.90;;;;;;4995926;28;20099;-75
2022/05/16 04:22:51;;;;;;;1.38;0.60;;;23.50;99.90;;;;;;4995848;28;20022;-75
2022/05/16 04:25:20;;;;;;;1.77;0.55;;;23.50;99.90;;;;;;4995760;28;20096;-75
2022/05/16 04:27:48;;;;;;;1.10;0.70;;;23.60;99.90;;;;;;4994540;28;20577;-75
2022/05/16 04:30:15;;;;;;;0.93;0.63;;;23.40;99.90;;;;;;4995695;28;20022;-75
2022/05/16 04:32:43;;;;;;;0.90;0.50;;;23.30;99.90;;;;;;4995607;28;20022;-75
2022/05/16 04:35:11;;;;;;;1.30;0.60;;;23.30;99.90;;;;;;4978495;28;20060;-75
2022/05/16 04:37:38;;;;;;;0.77;0.38;;;23.20;99.90;;;;;;4994234;28;20498;-75
2022/05/16 04:40:08;;;;;;;0.90;0.40;;;23.20;99.90;;;;;;4994277;28;20468;-75
2022/05/16 04:42:42;;;;;;;1.65;0.60;;;23.10;99.90;;;;;;4994180;28;20402;-75
2022/05/16 04:45:19;;;;;;;1.27;0.63;;;23.00;99.90;;;;;;4994089;28;20403;-75
2022/05/16 04:47:51;;;;;;;1.08;0.50;;;22.90;99.90;;;;;;4995251;28;20026;-75
2022/05/16 04:50:34;;;;;;;1.85;0.70;;;22.70;99.90;;;;;;4995452;28;20026;-75
2022/05/16 04:53:02;;;;;;;1.33;0.70;;;22.80;99.90;;;;;;4995230;28;20081;-75
2022/05/16 04:55:31;;;;;;;1.33;0.57;;;22.70;99.90;;;;;;4993880;28;20034;-75
2022/05/16 04:57:58;;;;;;;1.35;0.52;;;22.60;99.90;;;;;;4993776;28;20164;-75
2022/05/16 05:00:27;;;;;;;1.13;0.55;;;22.50;99.90;;;;;;4993808;28;20084;-75
2022/05/16 05:02:57;;;;;;;1.25;0.40;;;22.50;99.90;;;;;;4993800;28;20034;-75
2022/05/16 05:05:24;;;;;;;1.27;0.50;;;22.30;99.90;;;;;;4994950;28;20027;-75
2022/05/16 05:07:51;;;;;;;2.15;0.60;;;22.30;99.90;;;;;;4995083;28;20125;-75
2022/05/16 05:16:05;;;;;;;0.75;0.60;;;22.30;99.90;;;;;;4994844;28;20037;-74
2022/05/16 05:18:32;;;;;;;0.57;0.45;;;22.40;99.90;;;;;;4994841;28;20027;-74
2022/05/16 05:20:59;;;;;;;3.42;0.80;;;22.20;99.90;;;;;;4993317;28;20437;-74
2022/05/16 05:23:27;;;;;;;0.77;0.60;;;22.30;99.90;;;;;;4994633;28;20026;-74
2022/05/16 05:25:54;;;;;;;1.35;0.70;;;22.30;99.90;;;;;;4993998;28;20035;-75
2022/05/16 05:28:21;;;;;;;0.68;0.40;;;22.20;99.90;;;;;;4994638;28;20363;-75
2022/05/16 05:30:49;;;;;;;1.17;0.50;;;22.20;99.90;;;;;;4994508;28;20102;-74
2022/05/16 05:33:16;;;;;;;1.15;0.73;;;22.00;99.90;;;;;;4994561;28;20125;-75
2022/05/16 05:35:43;;;;;;;1.17;0.50;;;22.00;99.90;;;;;;4994455;28;20022;-75
2022/05/16 05:38:11;;;;;;;1.60;0.57;;;22.00;99.90;;;;;;4994355;28;20390;-75
2022/05/16 05:40:38;;;;;;;1.27;0.60;;;22.00;99.90;;;;;;4993081;28;20033;-75
2022/05/16 05:43:07;;;;;;;1.35;0.63;;;22.00;99.90;;;;;;4992949;28;20022;-74
2022/05/16 05:45:36;;;;;;;0.70;0.40;;;21.90;99.90;;;;;;4994194;28;20459;-74
2022/05/16 05:48:05;;;;;;;0.70;0.55;;;21.90;99.90;;;;;;4992895;28;20027;-74
2022/05/16 05:50:32;;;;;;;0.63;0.40;;;21.90;99.90;;;;;;4994225;28;20074;-75
2022/05/16 05:52:59;;;;;;;0.65;0.43;;;21.80;99.90;;;;;;4994188;28;20040;-75
2022/05/16 05:55:27;;;;;;;1.98;0.50;;;21.80;99.90;;;;;;4992898;28;20023;-75
2022/05/16 05:57:55;;;;;;;0.80;0.60;;;21.70;99.90;;;;;;4992872;28;20092;-75
2022/05/16 06:00:23;;;;;;;1.23;0.60;;;21.60;99.90;;;;;;4994120;28;20033;-75
2022/05/16 06:02:50;;;;;;;1.00;0.60;;;21.60;99.90;;;;;;4993966;28;20458;-75
2022/05/16 06:05:21;;;;;;;2.05;0.60;;;21.60;99.90;;;;;;4992673;28;20034;-76
2022/05/16 06:07:48;;;;;;;0.70;0.47;;;21.50;99.90;;;;;;4992519;28;20035;-76
2022/05/16 06:10:16;;;;;;;0.70;0.50;;;21.60;99.90;;;;;;4994002;28;20023;-75
2022/05/16 06:12:43;;;;;;;0.55;0.50;;;21.60;99.90;;;;;;4993880;28;20019;-76
2022/05/16 06:15:13;;;;;;;1.02;0.68;;;21.60;99.90;;;;;;4992612;28;20030;-75
2022/05/16 06:17:41;;;;;;;0.90;0.60;;;21.60;99.90;;;;;;4992570;28;20084;-75
2022/05/16 06:20:10;;;;;;;2.00;0.60;;;21.40;99.90;;;;;;4993744;28;20026;-75
2022/05/16 06:22:38;;;;;;;1.63;0.70;;;21.30;99.90;;;;;;4993798;28;20105;-76
2022/05/16 06:27:55;;;;;;;1.02;0.60;;;21.10;99.90;;;;;;4994034;28;20049;-75
2022/05/16 06:30:23;;;;;;;1.25;0.70;;;21.00;99.90;;;;;;4993726;28;20360;-76
2022/05/16 06:32:51;;;;;;;2.13;1.00;;;20.90;99.90;;;;;;4992304;28;20022;-76
2022/05/16 06:35:19;;;;;;;1.92;0.80;;;20.90;99.90;;;;;;4993355;28;20026;-76
2022/05/16 06:37:46;;;;;;;1.15;0.70;;;20.70;99.90;;;;;;4995317;28;20391;-75
2022/05/16 06:40:17;;;;;;;3.00;0.88;;;20.70;99.90;;;;;;4997642;28;20037;-75
2022/05/16 06:42:45;;;;;;;1.35;0.90;;;20.60;99.90;;;;;;4998000;28;20113;-75
2022/05/16 06:45:13;;;;;;;1.65;0.70;;;20.60;99.90;;;;;;4996211;28;20493;-74
2022/05/16 06:47:41;;;;;;;1.23;0.70;;;20.40;99.90;;;;;;4997467;28;20122;-76
2022/05/16 06:50:09;;;;;;;2.83;0.88;;;20.30;99.90;;;;;;4996244;28;20403;-76
2022/05/16 06:52:36;;;;;;;2.53;0.95;;;20.30;99.90;;;;;;4996122;28;20458;-76
2022/05/16 06:55:04;;;;;;;1.33;0.98;;;20.10;99.90;;;;;;4997640;28;20027;-74
2022/05/16 06:57:33;;;;;;;2.22;0.82;;;20.00;99.90;;;;;;4996657;28;20038;-75
2022/05/16 07:00:01;;;;;;;1.60;0.90;;;20.00;99.90;;;;;;4997792;28;20022;-75
2022/05/16 07:02:28;;;;;;;4.32;0.98;;;19.90;99.90;;;;;;4997610;28;20031;-75
2022/05/16 07:04:55;;;;;;;2.75;1.00;;;19.80;99.90;;;;;;4995873;28;20034;-75
2022/05/16 07:07:23;;;;;;;2.03;0.70;;;19.70;99.90;;;;;;4996852;28;20076;-75
2022/05/16 07:09:50;;;;;;;2.38;1.40;;;19.60;99.90;;;;;;4995717;28;20030;-75
2022/05/16 07:12:18;;;;;;;2.35;1.10;;;19.50;99.90;;;;;;4997005;28;20050;-74
2022/05/16 07:14:47;;;;;;;3.17;1.00;;;19.40;99.90;;;;;;4995669;28;20100;-73
2022/05/16 07:17:14;;;;;;;1.83;1.15;;;19.20;99.90;;;;;;4995905;28;20161;-73
2022/05/16 07:19:42;;;;;;;2.85;1.52;;;19.10;99.90;;;;;;4996875;28;20042;-74
2022/05/16 07:22:16;;;;;;;2.45;1.00;;;19.10;99.90;;;;;;4997048;28;20022;-73
2022/05/16 07:24:45;;;;;;;2.08;1.05;;;19.00;99.90;;;;;;4996842;28;20018;-74
2022/05/16 07:29:59;;;;;;;2.53;1.30;;;18.90;99.90;;;;;;4997288;28;20609;-73
2022/05/16 07:32:43;;;;;;;1.77;1.00;;;18.80;99.90;;;;;;4995394;28;20019;-73
2022/05/16 07:35:22;;;;;;;2.97;1.10;;;18.80;99.90;;;;;;4996731;28;20030;-74
2022/05/16 07:37:53;;;;;;;2.40;1.10;;;18.70;99.90;;;;;;4996583;28;20390;-75
2022/05/16 07:40:23;;;;;;;6.63;1.50;;;18.60;99.90;;;;;;4995410;28;20467;-74
2022/05/16 07:42:52;;;;;;;5.40;1.37;;;18.70;99.90;;;;;;4995363;28;20022;-75
2022/05/16 07:45:20;;;;;;;3.30;1.30;;;18.60;99.90;;;;;;4996445;28;20033;-74
2022/05/16 07:47:49;;;;;;;3.35;1.20;;;18.50;99.90;;;;;;4996377;28;20022;-74
2022/05/16 07:50:17;;;;;;;4.10;1.20;;;18.50;99.90;;;;;;4994764;28;20035;-75
2022/05/16 07:52:48;;;;;;;2.35;1.10;;;18.50;99.90;;;;;;4995225;28;20033;-74
2022/05/16 07:55:22;;;;;;;3.33;1.10;;;18.50;99.90;;;;;;4996263;28;20033;-74
2022/05/16 07:57:50;;;;;;;4.13;1.17;;;18.40;99.90;;;;;;4994985;28;20109;-74
2022/05/16 08:00:20;;;;;;;3.58;1.20;;;18.30;99.90;;;;;;4996059;28;20394;-74
2022/05/16 08:02:47;;;;;;;1.38;0.98;;;18.30;99.90;;;;;;4994827;28;20037;-75
2022/05/16 08:05:16;;;;;;;2.70;1.33;;;18.20;99.90;;;;;;4994539;28;20036;-75
2022/05/16 08:10:30;;;;;;;3.08;1.60;;;18.20;99.90;;;;;;4996318;28;20053;-74
2022/05/16 08:13:07;;;;;;;2.63;1.58;;;18.10;99.90;;;;;;4994770;28;20475;-74
2022/05/16 08:15:36;;;;;;;2.17;1.27;;;18.10;99.90;;;;;;4995982;28;20022;-75
2022/05/16 08:18:06;;;;;;;2.60;1.55;;;18.00;99.90;;;;;;4995964;28;20098;-76
2022/05/16 08:20:37;;;;;;;2.55;1.35;;;18.00;99.90;;;;;;4996051;28;20031;-76
2022/05/16 08:23:04;;;;;;;1.58;1.10;;;18.00;99.90;;;;;;4995904;28;20545;-76
2022/05/16 08:25:32;;;;;;;2.83;1.40;;;18.00;99.90;;;;;;4994427;28;20041;-77
2022/05/16 08:27:59;;;;;;;2.72;1.40;;;18.10;99.90;;;;;;4995863;28;20029;-76
2022/05/16 08:30:28;;;;;;;3.63;1.70;;;18.00;99.90;;;;;;4994431;28;20121;-76
2022/05/16 08:32:58;;;;;;;5.60;4.57;;;18.10;99.90;;;;;;4994677;28;20030;-75
2022/05/16 08:35:25;;;;;;;4.28;3.00;;;18.20;99.90;;;;;;4994354;28;20080;-75
2022/05/16 08:41:06;;;;;;;4.38;2.83;;;18.30;99.90;;;;;;4995942;28;20490;-75
2022/05/16 08:43:59;;;;;;;4.78;2.60;;;18.40;99.90;;;;;;4995911;28;20055;-75
2022/05/16 08:46:33;;;;;;;3.88;2.20;;;18.40;99.90;;;;;;4993869;28;20030;-75
2022/05/16 08:49:11;;;;;;;3.70;2.58;;;18.50;99.90;;;;;;4994048;28;20363;-75
2022/05/16 08:51:39;;;;;;;8.18;3.65;;;18.50;99.90;;;;;;4995294;28;20026;-77
2022/05/16 08:54:25;;;;;;;4.80;2.92;;;18.40;99.90;;;;;;4995193;28;20018;-74
2022/05/16 08:56:53;;;;;;;7.53;5.00;;;18.50;99.90;;;;;;4995532;28;20026;-75
2022/05/16 08:59:25;;;;;;;7.05;3.95;;;18.50;99.90;;;;;;4993751;28;20434;-74
2022/05/16 09:02:16;;;;;;;6.30;4.28;;;18.50;99.90;;;;;;4994006;28;20125;-73
2022/05/16 09:04:56;;;;;;;5.82;3.83;;;18.50;99.90;;;;;;4993665;28;20479;-74
2022/05/16 09:07:51;;;;;;;5.85;3.50;;;18.50;99.90;;;;;;4993380;28;20022;-74
2022/05/16 09:10:43;;;;;;;4.38;3.00;;;18.50;99.90;;;;;;4990987;28;20034;-76
2022/05/16 09:13:28;;;;;;;5.88;2.45;;;18.50;99.90;;;;;;4994732;28;20549;-75
2022/05/16 09:16:24;;;;;;;4.63;2.45;;;18.50;99.90;;;;;;4995021;28;20030;-75
2022/05/16 09:19:07;;;;;;;5.80;2.38;;;18.50;99.90;;;;;;4994727;28;20026;-75
2022/05/16 09:22:00;;;;;;;4.70;2.10;;;18.60;99.90;;;;;;4994795;28;20026;-76
2022/05/16 09:25:00;;;;;;;3.90;1.83;;;18.60;99.90;;;;;;4995168;28;20053;-75
2022/05/16 09:30:27;;;;;;;4.53;1.92;;;18.70;99.90;;;;;;4994786;28;20045;-75
2022/05/16 09:33:29;;;;;;;6.15;1.88;;;18.60;99.90;;;;;;4993198;28;20054;-74
2022/05/16 09:36:02;;;;;;;3.45;1.45;;;18.60;99.90;;;;;;4987452;28;20494;-74
2022/05/16 09:38:30;;;;;;;4.10;1.40;;;18.60;99.90;;;;;;4993129;28;20064;-75
2022/05/16 09:41:03;;;;;;;3.25;0.90;;;18.60;99.90;;;;;;4992998;28;20038;-75
2022/05/16 09:43:41;;;;;;;4.68;1.00;;;18.60;99.90;;;;;;4994204;28;20022;-74
2022/05/16 09:46:29;;;;;;;4.15;0.93;;;18.60;99.90;;;;;;4993504;28;20034;-76
2022/05/16 09:49:21;;;;;;;2.58;1.15;;;18.60;99.90;;;;;;4992991;28;20035;-75
2022/05/16 09:51:52;;;;;;;2.80;0.80;;;18.60;99.90;;;;;;4993989;28;20073;-74
2022/05/16 09:54:38;;;;;;;5.40;1.38;;;18.50;99.90;;;;;;4994175;28;20054;-76
2022/05/16 09:57:16;;;;;;;4.03;1.38;;;18.40;99.90;;;;;;4992848;28;20023;-76
2022/05/16 09:59:48;;;;;;;4.60;1.38;;;18.40;99.90;;;;;;4994057;28;20022;-75
2022/05/16 10:02:27;;;;;;;5.38;1.02;;;18.40;99.90;;;;;;4994284;28;20019;-76
2022/05/16 10:05:09;;;;;;;7.68;1.75;;;18.30;99.90;;;;;;4994011;28;20036;-77
2022/05/16 10:07:51;;;;;;;3.80;1.25;;;18.20;99.90;;;;;;4992687;28;20501;-77
2022/05/16 10:10:26;;;;;;;2.53;1.25;;;18.20;99.90;;;;;;4992852;28;20436;-77
2022/05/16 10:12:57;;;;;;;4.22;1.40;;;18.20;99.90;;;;;;4993810;28;20026;-77
2022/05/16 10:15:25;;;;;;;2.63;1.00;;;18.00;99.90;;;;;;4994268;28;20054;-77
2022/05/16 10:17:56;;;;;;;2.85;1.55;;;18.00;99.90;;;;;;4993762;28;20061;-77
2022/05/16 10:20:46;;;;;;;4.95;1.55;;;18.00;99.90;;;;;;4994538;28;20023;-77
2022/05/16 10:23:22;;;;;;;4.13;1.10;;;18.00;99.90;;;;;;4994358;28;20030;-77
2022/05/16 10:25:54;;;;;;;5.65;1.27;;;18.00;99.90;;;;;;4993799;28;20045;-77
2022/05/16 10:28:29;;;;;;;4.78;1.27;;;17.90;99.90;;;;;;4993737;28;20073;-77
2022/05/16 10:33:47;;;;;;;3.22;1.38;;;17.70;99.90;;;;;;4994235;28;20030;-74
2022/05/16 10:36:30;;;;;;;6.53;1.60;;;17.70;99.90;;;;;;4992520;28;20034;-77
2022/05/16 10:39:21;;;;;;;4.47;1.30;;;17.60;99.90;;;;;;4993760;28;20030;-76
2022/05/16 10:42:06;;;;;;;3.55;1.35;;;17.50;99.90;;;;;;4992341;28;20064;-76
2022/05/16 10:44:38;;;;;;;3.42;0.93;;;17.50;99.90;;;;;;4992337;28;20081;-75
2022/05/16 10:47:37;;;;;;;3.30;1.02;;;17.50;99.90;;;;;;4992300;28;20022;-75
2022/05/16 10:50:08;;;;;;;4.43;1.10;;;17.50;99.90;;;;;;4991853;28;20491;-76
2022/05/16 10:52:44;;;;;;;2.80;1.25;;;17.50;99.90;;;;;;4993572;28;20026;-75
2022/05/16 10:55:12;;;;;;;3.65;1.10;;;17.50;99.90;;;;;;4993717;28;20052;-75
2022/05/16 10:58:22;;;;;;;2.00;1.00;;;17.40;99.90;;;;;;4992084;28;20490;-76
2022/05/16 11:01:08;;;;;;;3.67;1.17;;;17.30;99.90;;;;;;4989565;28;20030;-76
2022/05/16 11:03:53;;;;;;;3.17;0.95;;;17.20;99.90;;;;;;4993930;28;20101;-75
2022/05/16 11:06:42;;;;;;;4.65;1.42;;;17.00;99.90;;;;;;4991929;28;20431;-76
2022/05/16 11:09:18;;;;;;;3.10;0.88;;;17.00;99.90;;;;;;4991686;28;20047;-76
2022/05/16 11:11:57;;;;;;;3.38;1.50;;;17.00;99.90;;;;;;4993507;28;20485;-76
2022/05/16 11:14:30;;;;;;;4.45;1.10;;;17.10;99.90;;;;;;4992102;28;20029;-75
2022/05/16 11:17:17;;;;;;;4.10;1.20;;;17.10;99.90;;;;;;4993688;28;20045;-76
2022/05/16 11:20:00;;;;;;;4.18;0.93;;;17.10;99.90;;;;;;4991971;28;20502;-75
2022/05/16 11:22:30;;;;;;;3.45;0.93;;;17.00;99.90;;;;;;4991816;28;20023;-75
2022/05/16 11:25:25;;;;;;;2.95;1.27;;;16.90;99.90;;;;;;4995308;28;20039;-75
2022/05/16 11:28:17;;;;;;;3.30;1.10;;;16.70;99.90;;;;;;4995546;28;20027;-74
2022/05/16 11:30:56;;;;;;;3.95;1.38;;;16.50;99.90;;;;;;4996995;28;20030;-75
2022/05/16 11:33:56;;;;;;;2.65;1.10;;;16.40;99.90;;;;;;4996832;28;20042;-74
2022/05/16 11:36:32;;;;;;;3.42;1.02;;;16.40;99.90;;;;;;4974528;28;20062;-76
2022/05/16 11:39:22;;;;;;;4.75;1.20;;;16.40;99.90;;;;;;4995368;28;20018;-75
2022/05/16 11:42:22;;;;;;;3.17;1.15;;;16.40;99.90;;;;;;4995333;28;20026;-74
2022/05/16 11:45:16;;;;;;;3.60;1.15;;;16.50;99.90;;;;;;4991015;28;20105;-74
2022/05/16 11:48:21;;;;;;;5.88;1.00;;;16.50;99.90;;;;;;4995191;28;20344;-74
2022/05/16 11:50:52;;;;;;;3.80;0.98;;;16.40;99.90;;;;;;4973113;28;20125;-74
2022/05/16 11:53:47;;;;;;;3.33;1.13;;;16.30;99.90;;;;;;4996389;28;20065;-74
2022/05/16 12:02:29;;;;;;;4.32;1.33;;;16.00;99.90;;;;;;4996326;28;20061;-72
2022/05/16 12:05:07;;;;;;;2.20;1.00;;;16.00;99.90;;;;;;4994755;28;20054;-72
2022/05/16 12:07:49;;;;;;;3.30;1.08;;;15.90;99.90;;;;;;4995933;28;20026;-74
2022/05/16 12:10:16;;;;;;;3.45;1.10;;;15.90;99.90;;;;;;4996252;28;20426;-75
2022/05/16 12:13:08;;;;;;;5.55;1.10;;;15.80;99.90;;;;;;4996045;28;20482;-74
2022/05/16 12:15:35;;;;;;;3.92;1.25;;;15.70;99.90;;;;;;4984448;28;20038;-73
2022/05/16 12:18:27;;;;;;;6.00;1.40;;;15.60;99.90;;;;;;4994604;28;20030;-74
2022/05/16 12:21:04;;;;;;;3.72;1.10;;;15.50;99.90;;;;;;4995714;28;20097;-74
2022/05/16 12:23:50;;;;;;;4.00;1.55;;;15.50;99.90;;;;;;4996160;28;20049;-75
2022/05/16 12:26:31;;;;;;;4.88;1.40;;;15.40;99.90;;;;;;4996205;28;20027;-74
2022/05/16 12:29:14;;;;;;;5.68;1.15;;;15.40;99.90;;;;;;4994571;28;20027;-73
2022/05/16 12:31:50;;;;;;;2.72;1.15;;;15.30;99.90;;;;;;4996115;28;20077;-74
2022/05/16 12:34:32;;;;;;;3.92;1.17;;;15.30;99.90;;;;;;4995988;28;20018;-74
2022/05/16 12:37:01;;;;;;;4.60;1.50;;;15.20;99.90;;;;;;4994123;28;20199;-74
2022/05/16 12:39:56;;;;;;;3.45;1.27;;;15.20;99.90;;;;;;4995595;28;20494;-74
2022/05/16 12:42:41;;;;;;;5.63;1.00;;;15.20;99.90;;;;;;4995782;28;20120;-74
2022/05/16 12:45:40;;;;;;;4.15;1.50;;;15.10;99.90;;;;;;4994144;28;20513;-74
2022/05/16 12:48:35;;;;;;;6.38;1.50;;;15.00;99.90;;;;;;4973347;28;20049;-73
2022/05/16 12:51:29;;;;;;;4.38;1.60;;;15.00;99.90;;;;;;4995570;28;20022;-73
2022/05/16 12:54:22;;;;;;;4.72;1.35;;;14.90;99.90;;;;;;4995396;28;20023;-75
2022/05/16 12:56:55;;;;;;;2.78;1.13;;;14.80;99.90;;;;;;4991072;28;20499;-74
2022/05/16 12:59:42;;;;;;;4.47;1.20;;;14.80;99.90;;;;;;4995140;28;20383;-74
2022/05/16 13:02:26;;;;;;;5.15;1.17;;;14.70;99.90;;;;;;4993867;28;20524;-74
2022/05/16 13:05:28;;;;;;;2.47;1.13;;;14.60;99.90;;;;;;4993807;28;20026;-74
2022/05/16 13:08:10;;;;;;;4.65;1.40;;;14.50;99.90;;;;;;4974368;28;20045;-74
2022/05/16 13:10:57;;;;;;;4.10;1.25;;;14.50;99.90;;;;;;4995066;28;20026;-74
2022/05/16 13:13:56;;;;;;;4.45;1.50;;;14.40;99.90;;;;;;4995145;28;20049;-74
2022/05/16 13:16:30;;;;;;;2.80;1.00;;;14.40;99.90;;;;;;4995178;28;20105;-75
2022/05/16 13:19:06;;;;;;;3.42;1.40;;;14.40;99.90;;;;;;4994844;28;20032;-75
2022/05/16 13:21:42;;;;;;;3.00;1.25;;;14.30;99.90;;;;;;4993624;28;20137;-74
2022/05/16 13:24:12;;;;;;;4.20;1.35;;;14.30;99.90;;;;;;4994739;28;20105;-74
2022/05/16 13:29:33;;;;;;;6.18;1.50;;;14.20;99.90;;;;;;4994965;28;20037;-76
2022/05/16 13:32:11;;;;;;;5.07;1.48;;;14.20;99.90;;;;;;4994861;28;20021;-75
2022/05/16 13:34:49;;;;;;;3.45;1.45;;;14.20;99.90;;;;;;4994574;28;20475;-75
2022/05/16 13:37:25;;;;;;;4.22;1.50;;;14.10;99.90;;;;;;4993278;28;20356;-75
2022/05/16 13:40:06;;;;;;;4.05;1.45;;;14.00;99.90;;;;;;4994512;28;20023;-72
2022/05/16 13:42:37;;;;;;;6.18;1.48;;;13.90;99.90;;;;;;4994566;28;20018;-72
2022/05/16 13:45:08;;;;;;;5.15;1.75;;;13.80;99.90;;;;;;4993063;28;20022;-72
2022/05/16 13:47:40;;;;;;;4.28;1.63;;;13.80;99.90;;;;;;4992546;28;20069;-73
2022/05/16 13:50:42;;;;;;;6.07;1.92;;;13.80;99.90;;;;;;4994328;28;20022;-73
2022/05/16 13:53:14;;;;;;;5.10;1.80;;;13.70;99.90;;;;;;4972385;28;20034;-73
2022/05/16 13:55:51;;;;;;;6.63;2.30;;;13.70;99.90;;;;;;4992832;28;20061;-73
2022/05/16 13:58:19;;;;;;;4.97;1.70;;;13.60;99.90;;;;;;4976880;28;20034;-73
2022/05/16 14:00:49;;;;;;;5.78;1.73;;;13.70;99.90;;;;;;4994134;28;20084;-73
2022/05/16 14:03:31;;;;;;;5.13;1.60;;;13.60;99.90;;;;;;4992938;28;20517;-74